createdAt,value
2023-04-17T00:04:07.756Z,44.2
2023-04-17T00:09:07.413Z,42.9
2023-04-17T00:14:07.378Z,43.2
2023-04-17T00:19:07.350Z,43.3
2023-04-17T00:24:07.310Z,40.6
2023-04-17T00:29:07.237Z,40.6
2023-04-17T00:34:07.178Z,38.3
2023-04-17T00:39:07.154Z,40.7
2023-04-17T00:44:07.058Z,40.0
2023-04-17T00:49:07.028Z,40.0
2023-04-17T00:54:07.028Z,40.9
2023-04-17T00:59:06.911Z,38.1
2023-04-17T01:04:07.031Z,39.2
2023-04-17T01:09:06.875Z,39.6
2023-04-17T01:14:06.803Z,38.9
2023-04-17T01:19:06.750Z,38.3
2023-04-17T01:24:06.681Z,39.6
2023-04-17T01:29:06.565Z,39.3
2023-04-17T01:34:06.540Z,41.0
2023-04-17T01:39:06.499Z,40.7
2023-04-17T01:44:06.458Z,38.5
2023-04-17T01:49:06.371Z,37.9
2023-04-17T01:54:06.339Z,38.2
2023-04-17T01:59:06.283Z,37.2
2023-04-17T02:04:06.310Z,36.4
2023-04-17T02:09:06.186Z,36.0
2023-04-17T02:14:06.162Z,37.1
2023-04-17T02:19:06.036Z,37.3
2023-04-17T02:24:06.031Z,35.1
2023-04-17T02:29:05.981Z,34.6
2023-04-17T02:34:05.951Z,33.1
2023-04-17T02:39:05.919Z,34.2
2023-04-17T02:44:05.739Z,34.8
2023-04-17T02:49:05.684Z,33.0
2023-04-17T02:54:05.719Z,33.4
2023-04-17T02:59:05.669Z,32.7
2023-04-17T03:04:05.738Z,33.6
2023-04-17T03:09:05.485Z,32.5
2023-04-17T03:14:05.438Z,33.0
2023-04-17T03:19:05.358Z,34.2
2023-04-17T03:24:05.317Z,31.1
2023-04-17T03:29:05.264Z,32.4
2023-04-17T03:34:05.226Z,31.9
2023-04-17T03:39:05.177Z,32.0
2023-04-17T03:44:05.125Z,32.2
2023-04-17T03:49:05.048Z,32.6
2023-04-17T03:54:04.981Z,33.4
2023-04-17T03:59:04.953Z,33.0
2023-04-17T04:04:05.220Z,33.6
2023-04-17T04:09:04.829Z,33.9
2023-04-17T04:14:04.752Z,35.0
2023-04-17T04:19:04.706Z,34.0
2023-04-17T04:24:04.610Z,35.3
2023-04-17T04:29:04.658Z,35.1
2023-04-17T04:34:13.405Z,35.2
2023-04-17T04:39:04.473Z,36.5
2023-04-17T04:44:04.510Z,35.7
2023-04-17T04:49:04.468Z,35.3
2023-04-17T04:54:04.315Z,36.3
2023-04-17T04:59:04.298Z,36.5
2023-04-17T05:04:04.527Z,36.4
2023-04-17T05:09:04.285Z,36.5
2023-04-17T05:14:05.257Z,35.7
2023-04-17T05:19:04.432Z,36.0
2023-04-17T05:24:04.052Z,35.4
2023-04-17T05:29:04.039Z,35.2
2023-04-17T05:34:04.984Z,35.8
2023-04-17T05:39:04.020Z,35.5
2023-04-17T05:44:03.907Z,33.8
2023-04-17T05:49:03.847Z,34.1
2023-04-17T05:54:03.836Z,34.8
2023-04-17T05:59:03.734Z,33.1
2023-04-17T06:04:04.003Z,33.3
2023-04-17T06:09:03.613Z,33.9
2023-04-17T06:14:03.470Z,33.5
2023-04-17T06:19:03.476Z,33.0
2023-04-17T06:24:03.449Z,33.2
2023-04-17T06:29:03.399Z,34.5
2023-04-17T06:34:03.408Z,33.6
2023-04-17T06:39:03.278Z,32.3
2023-04-17T06:44:03.248Z,32.4
2023-04-17T06:49:03.252Z,31.1
2023-04-17T06:54:03.112Z,32.0
2023-04-17T06:59:03.289Z,29.9
2023-04-17T07:04:03.161Z,31.5
2023-04-17T07:09:03.063Z,32.3
2023-04-17T07:14:02.865Z,31.2
2023-04-17T07:19:02.823Z,33.4
2023-04-17T07:24:02.870Z,33.9
2023-04-17T07:29:02.688Z,33.5
2023-04-17T07:34:02.612Z,33.5
2023-04-17T07:39:02.662Z,32.5
2023-04-17T07:44:02.534Z,31.5
2023-04-17T07:49:02.495Z,32.2
2023-04-17T07:54:02.434Z,33.4
2023-04-17T07:59:02.521Z,32.8
2023-04-17T08:04:02.638Z,31.6
2023-04-17T08:09:02.246Z,32.5
2023-04-17T08:14:02.292Z,33.5
2023-04-17T08:19:02.073Z,34.0
2023-04-17T08:24:02.012Z,36.5
2023-04-17T08:29:02.018Z,40.2
2023-04-17T08:34:13.076Z,44.4
2023-04-17T08:39:02.876Z,42.6
2023-04-17T08:44:01.831Z,43.4
2023-04-17T08:49:01.749Z,42.2
2023-04-17T08:54:01.706Z,34.9
2023-04-17T08:59:01.658Z,35.7
2023-04-17T09:04:01.769Z,37.1
2023-04-17T09:09:01.652Z,32.2
2023-04-17T09:14:01.526Z,36.0
2023-04-17T09:19:01.467Z,31.7
2023-04-17T09:24:01.426Z,26.1
2023-04-17T09:29:01.442Z,25.1
2023-04-17T09:34:01.363Z,27.3
2023-04-17T09:39:01.279Z,26.5
2023-04-17T09:44:01.192Z,25.2
2023-04-17T09:49:01.110Z,24.7
2023-04-17T09:54:01.153Z,21.7
2023-04-17T09:59:01.084Z,20.5
2023-04-17T10:04:01.220Z,20.3
2023-04-17T10:09:00.968Z,16.7
2023-04-17T10:14:00.845Z,15.6
2023-04-17T10:19:00.840Z,14.6
2023-04-17T10:24:00.701Z,15.3
2023-04-17T10:29:00.673Z,15.1
2023-04-17T10:34:09.710Z,13.8
2023-04-17T10:39:00.568Z,13.6
2023-04-17T10:44:00.486Z,12.7
2023-04-17T10:49:00.440Z,11.4
2023-04-17T10:54:00.419Z,10.2
2023-04-17T10:59:00.379Z,11.5
2023-04-17T11:04:00.313Z,11.7
2023-04-17T11:09:00.263Z,11.4
2023-04-17T11:14:00.182Z,11.1
2023-04-17T11:19:00.155Z,10.5
2023-04-17T11:24:00.107Z,10.1
2023-04-17T11:29:00.057Z,9.9
2023-04-17T11:34:00.007Z,9.7
2023-04-17T11:38:59.919Z,10.1
2023-04-17T11:43:59.934Z,9.5
2023-04-17T11:48:59.944Z,9.2
2023-04-17T11:53:59.780Z,9.8
2023-04-17T11:58:59.707Z,9.3
2023-04-17T12:03:59.948Z,9.3
2023-04-17T12:08:59.603Z,8.2
2023-04-17T12:13:59.686Z,9.2
2023-04-17T12:18:59.546Z,8.4
2023-04-17T12:23:59.459Z,8.3
2023-04-17T12:28:59.417Z,8.2
2023-04-17T12:33:59.424Z,8.7
2023-04-17T12:38:59.278Z,8.4
2023-04-17T12:43:59.257Z,8.7
2023-04-17T12:48:59.316Z,8.7
2023-04-17T12:53:59.163Z,9.2
2023-04-17T12:59:02.123Z,9.5
2023-04-17T13:03:59.148Z,9.5
2023-04-17T13:08:58.981Z,8.9
2023-04-17T13:13:58.945Z,8.0
2023-04-17T13:18:58.852Z,8.7
2023-04-17T13:23:58.843Z,10.0
2023-04-17T13:28:58.788Z,9.7
2023-04-17T13:33:58.718Z,9.7
2023-04-17T13:38:58.648Z,9.6
2023-04-17T13:43:58.626Z,9.1
2023-04-17T13:48:58.573Z,8.7
2023-04-17T13:53:58.587Z,8.8
2023-04-17T13:58:58.472Z,9.5
2023-04-17T14:03:58.619Z,10.7
2023-04-17T14:08:58.375Z,10.0
2023-04-17T14:13:58.324Z,9.2
2023-04-17T14:19:12.722Z,9.6
2023-04-17T14:23:59.236Z,9.5
2023-04-17T14:28:58.091Z,8.9
2023-04-17T14:33:58.062Z,9.4
2023-04-17T14:38:58.118Z,11.0
2023-04-17T14:43:58.077Z,10.0
2023-04-17T14:48:57.924Z,9.9
2023-04-17T14:53:57.856Z,10.1
2023-04-17T14:58:57.817Z,9.5
2023-04-17T15:03:57.963Z,8.8
2023-04-17T15:08:57.738Z,10.4
2023-04-17T15:13:57.628Z,9.5
2023-04-17T15:18:57.577Z,8.8
2023-04-17T15:23:57.557Z,9.2
2023-04-17T15:28:57.494Z,9.2
2023-04-17T15:33:57.429Z,9.8
2023-04-17T15:38:57.495Z,8.3
2023-04-17T15:43:57.336Z,9.8
2023-04-17T15:49:08.282Z,9.5
2023-04-17T15:53:58.210Z,9.6
2023-04-17T15:58:57.256Z,8.9
2023-04-17T16:03:57.395Z,9.5
2023-04-17T16:08:57.068Z,8.5
2023-04-17T16:13:56.982Z,8.9
2023-04-17T16:18:58.089Z,9.8
2023-04-17T16:23:56.930Z,8.1
2023-04-17T16:28:56.916Z,8.3
2023-04-17T16:34:05.718Z,8.1
2023-04-17T16:38:56.703Z,9.3
2023-04-17T16:43:56.749Z,8.6
2023-04-17T16:48:56.651Z,7.5
2023-04-17T16:53:56.611Z,8.8
2023-04-17T16:58:56.491Z,7.9
2023-04-17T17:03:56.477Z,7.2
2023-04-17T17:08:56.433Z,7.9
2023-04-17T17:13:56.355Z,7.9
2023-04-17T17:18:56.290Z,7.9
2023-04-17T17:23:56.248Z,8.7
2023-04-17T17:28:56.187Z,8.7
2023-04-17T17:33:56.110Z,8.8
2023-04-17T17:38:56.279Z,9.3
2023-04-17T17:43:56.118Z,8.7
2023-04-17T17:48:55.996Z,8.8
2023-04-17T17:53:55.885Z,9.0
2023-04-17T17:58:55.882Z,9.0
2023-04-17T18:03:56.008Z,8.6
2023-04-17T18:08:55.772Z,9.5
2023-04-17T18:13:55.695Z,19.1
2023-04-17T18:18:55.625Z,9.5
2023-04-17T18:23:55.602Z,9.5
2023-04-17T18:28:55.563Z,10.5
2023-04-17T18:33:55.500Z,10.0
2023-04-17T18:38:55.454Z,11.4
2023-04-17T18:43:55.380Z,13.7
2023-04-17T18:48:55.320Z,10.2
2023-04-17T18:53:55.283Z,11.3
2023-04-17T18:58:55.247Z,9.6
2023-04-17T19:03:55.168Z,9.5
2023-04-17T19:08:55.159Z,10.3
2023-04-17T19:13:55.058Z,10.0
2023-04-17T19:18:55.000Z,9.9
2023-04-17T19:23:54.912Z,9.4
2023-04-17T19:28:54.971Z,11.2
2023-04-17T19:33:54.880Z,10.5
2023-04-17T19:38:54.787Z,12.2
2023-04-17T19:43:54.798Z,10.9
2023-04-17T19:48:54.855Z,11.5
2023-04-17T19:53:54.766Z,11.2
2023-04-17T19:58:54.576Z,10.5
2023-04-17T20:03:54.501Z,10.8
2023-04-17T20:08:54.448Z,11.4
2023-04-17T20:13:54.395Z,11.7
2023-04-17T20:18:54.303Z,11.1
2023-04-17T20:23:54.259Z,12.8
2023-04-17T20:28:54.331Z,13.6
2023-04-17T20:33:54.136Z,13.3
2023-04-17T20:38:54.115Z,13.3
2023-04-17T20:43:54.017Z,13.4
2023-04-17T20:48:54.010Z,13.8
2023-04-17T20:53:53.961Z,13.7
2023-04-17T20:58:53.925Z,14.1
2023-04-17T21:03:57.326Z,13.7
2023-04-17T21:08:53.769Z,13.6
2023-04-17T21:13:53.711Z,12.7
2023-04-17T21:18:53.799Z,13.2
2023-04-17T21:23:53.622Z,12.4
2023-04-17T21:28:53.567Z,12.2
2023-04-17T21:33:53.529Z,12.6
2023-04-17T21:38:53.452Z,12.5
2023-04-17T21:43:53.353Z,12.7
2023-04-17T21:48:53.476Z,12.5
2023-04-17T21:53:53.263Z,12.6
2023-04-17T21:58:55.325Z,12.4
2023-04-17T22:03:53.261Z,11.2
2023-04-17T22:08:53.168Z,11.6
2023-04-17T22:13:53.141Z,12.7
2023-04-17T22:18:53.055Z,12.0
2023-04-17T22:23:52.979Z,12.3
2023-04-17T22:28:52.921Z,11.6
2023-04-17T22:35:27.517Z,10.0
2023-04-17T22:40:27.456Z,10.1
2023-04-17T22:45:27.424Z,10.0
2023-04-17T22:50:27.395Z,11.9
2023-04-17T22:55:27.493Z,10.5
2023-04-17T23:00:27.281Z,10.1
2023-04-17T23:05:27.217Z,9.7
2023-04-17T23:10:27.186Z,12.8
2023-04-17T23:15:27.270Z,9.8
2023-04-17T23:20:27.039Z,10.6
2023-04-17T23:25:27.138Z,9.4
2023-04-17T23:30:26.921Z,11.2
2023-04-17T23:35:26.908Z,9.7
2023-04-17T23:40:26.833Z,9.3
2023-04-17T23:45:26.770Z,10.3
2023-04-17T23:50:26.736Z,9.9
2023-04-17T23:55:26.655Z,9.4
